sensor_id;sensor_type;location;lat;lon;timestamp;P1;durP1;ratioP1;P2;durP2;ratioP2
52380;SDS011;38310;52.796;6.942;2023-08-31T00:00:44;10.25;;;5.03;;
52380;SDS011;38310;52.796;6.942;2023-08-31T00:03:10;7.68;;;4.30;;
52380;SDS011;38310;52.796;6.942;2023-08-31T00:05:40;6.82;;;3.97;;
52380;SDS011;38310;52.796;6.942;2023-08-31T00:08:07;8.05;;;3.75;;
52380;SDS011;38310;52.796;6.942;2023-08-31T00:10:33;9.80;;;3.65;;
52380;SDS011;38310;52.796;6.942;2023-08-31T00:13:00;6.88;;;4.32;;
52380;SDS011;38310;52.796;6.942;2023-08-31T00:15:26;8.77;;;4.38;;
52380;SDS011;38310;52.796;6.942;2023-08-31T00:17:54;6.90;;;3.78;;
52380;SDS011;38310;52.796;6.942;2023-08-31T00:20:19;9.60;;;4.80;;
52380;SDS011;38310;52.796;6.942;2023-08-31T00:22:46;7.85;;;4.20;;
52380;SDS011;38310;52.796;6.942;2023-08-31T00:25:13;7.70;;;3.83;;
52380;SDS011;38310;52.796;6.942;2023-08-31T00:27:38;8.20;;;4.50;;
52380;SDS011;38310;52.796;6.942;2023-08-31T00:30:06;8.95;;;4.07;;
52380;SDS011;38310;52.796;6.942;2023-08-31T00:32:36;7.95;;;4.30;;
52380;SDS011;38310;52.796;6.942;2023-08-31T00:35:04;7.22;;;4.20;;
52380;SDS011;38310;52.796;6.942;2023-08-31T00:37:30;9.23;;;4.32;;
52380;SDS011;38310;52.796;6.942;2023-08-31T00:39:56;10.90;;;4.53;;
52380;SDS011;38310;52.796;6.942;2023-08-31T00:42:22;8.88;;;5.10;;
52380;SDS011;38310;52.796;6.942;2023-08-31T00:44:49;8.95;;;5.68;;
52380;SDS011;38310;52.796;6.942;2023-08-31T00:47:15;10.23;;;5.55;;
52380;SDS011;38310;52.796;6.942;2023-08-31T00:49:41;13.13;;;5.95;;
52380;SDS011;38310;52.796;6.942;2023-08-31T00:52:07;12.30;;;6.18;;
52380;SDS011;38310;52.796;6.942;2023-08-31T00:54:34;11.63;;;5.88;;
52380;SDS011;38310;52.796;6.942;2023-08-31T00:57:00;9.75;;;5.72;;
52380;SDS011;38310;52.796;6.942;2023-08-31T00:59:26;12.63;;;5.88;;
52380;SDS011;38310;52.796;6.942;2023-08-31T01:07:21;7.65;;;4.97;;
52380;SDS011;38310;52.796;6.942;2023-08-31T01:10:17;7.78;;;4.78;;
52380;SDS011;38310;52.796;6.942;2023-08-31T01:13:14;8.07;;;4.90;;
52380;SDS011;38310;52.796;6.942;2023-08-31T01:15:44;8.95;;;4.78;;
52380;SDS011;38310;52.796;6.942;2023-08-31T01:18:15;7.82;;;4.85;;
52380;SDS011;38310;52.796;6.942;2023-08-31T01:23:25;9.52;;;5.88;;
52380;SDS011;38310;52.796;6.942;2023-08-31T01:25:59;7.93;;;5.47;;
52380;SDS011;38310;52.796;6.942;2023-08-31T01:28:25;7.40;;;4.57;;
52380;SDS011;38310;52.796;6.942;2023-08-31T01:30:51;11.10;;;4.97;;
52380;SDS011;38310;52.796;6.942;2023-08-31T01:33:17;6.90;;;4.25;;
52380;SDS011;38310;52.796;6.942;2023-08-31T01:35:45;8.05;;;4.70;;
52380;SDS011;38310;52.796;6.942;2023-08-31T01:38:18;10.98;;;5.38;;
52380;SDS011;38310;52.796;6.942;2023-08-31T01:40:53;9.43;;;5.95;;
52380;SDS011;38310;52.796;6.942;2023-08-31T01:43:25;9.65;;;6.03;;
52380;SDS011;38310;52.796;6.942;2023-08-31T01:45:52;10.25;;;5.95;;
52380;SDS011;38310;52.796;6.942;2023-08-31T01:48:19;8.35;;;5.05;;
52380;SDS011;38310;52.796;6.942;2023-08-31T01:50:46;8.77;;;5.65;;
52380;SDS011;38310;52.796;6.942;2023-08-31T01:53:11;7.88;;;5.30;;
52380;SDS011;38310;52.796;6.942;2023-08-31T01:55:37;10.55;;;5.55;;
52380;SDS011;38310;52.796;6.942;2023-08-31T01:58:03;11.85;;;5.47;;
52380;SDS011;38310;52.796;6.942;2023-08-31T02:00:29;10.52;;;5.57;;
52380;SDS011;38310;52.796;6.942;2023-08-31T02:02:59;8.75;;;5.57;;
52380;SDS011;38310;52.796;6.942;2023-08-31T02:05:25;7.82;;;5.35;;
52380;SDS011;38310;52.796;6.942;2023-08-31T02:07:51;10.30;;;5.45;;
52380;SDS011;38310;52.796;6.942;2023-08-31T02:10:17;9.70;;;5.68;;
52380;SDS011;38310;52.796;6.942;2023-08-31T02:12:42;8.98;;;5.57;;
52380;SDS011;38310;52.796;6.942;2023-08-31T02:15:08;9.95;;;5.03;;
52380;SDS011;38310;52.796;6.942;2023-08-31T02:17:34;10.38;;;5.65;;
52380;SDS011;38310;52.796;6.942;2023-08-31T02:20:00;7.25;;;5.25;;
52380;SDS011;38310;52.796;6.942;2023-08-31T02:22:33;7.22;;;5.20;;
52380;SDS011;38310;52.796;6.942;2023-08-31T02:25:00;9.32;;;5.50;;
52380;SDS011;38310;52.796;6.942;2023-08-31T02:27:28;10.75;;;6.18;;
52380;SDS011;38310;52.796;6.942;2023-08-31T02:29:54;9.95;;;5.35;;
52380;SDS011;38310;52.796;6.942;2023-08-31T02:32:20;9.60;;;5.75;;
52380;SDS011;38310;52.796;6.942;2023-08-31T02:34:46;9.43;;;6.28;;
52380;SDS011;38310;52.796;6.942;2023-08-31T02:37:11;12.50;;;6.70;;
52380;SDS011;38310;52.796;6.942;2023-08-31T02:39:37;7.68;;;5.15;;
52380;SDS011;38310;52.796;6.942;2023-08-31T02:42:03;9.65;;;6.68;;
52380;SDS011;38310;52.796;6.942;2023-08-31T02:44:30;12.15;;;5.88;;
52380;SDS011;38310;52.796;6.942;2023-08-31T02:46:56;10.27;;;7.03;;
52380;SDS011;38310;52.796;6.942;2023-08-31T02:49:22;9.52;;;6.57;;
52380;SDS011;38310;52.796;6.942;2023-08-31T02:51:48;9.02;;;7.13;;
52380;SDS011;38310;52.796;6.942;2023-08-31T02:54:14;10.13;;;6.93;;
52380;SDS011;38310;52.796;6.942;2023-08-31T02:56:40;8.50;;;6.65;;
52380;SDS011;38310;52.796;6.942;2023-08-31T02:59:06;11.07;;;7.05;;
52380;SDS011;38310;52.796;6.942;2023-08-31T03:01:32;10.65;;;7.57;;
52380;SDS011;38310;52.796;6.942;2023-08-31T03:03:57;8.63;;;6.65;;
52380;SDS011;38310;52.796;6.942;2023-08-31T03:06:23;10.90;;;8.35;;
52380;SDS011;38310;52.796;6.942;2023-08-31T03:08:49;14.18;;;10.20;;
52380;SDS011;38310;52.796;6.942;2023-08-31T03:11:14;14.02;;;8.82;;
52380;SDS011;38310;52.796;6.942;2023-08-31T03:13:41;12.20;;;9.35;;
52380;SDS011;38310;52.796;6.942;2023-08-31T03:16:07;10.93;;;8.45;;
52380;SDS011;38310;52.796;6.942;2023-08-31T03:18:33;12.15;;;8.35;;
52380;SDS011;38310;52.796;6.942;2023-08-31T03:20:58;11.27;;;9.43;;
52380;SDS011;38310;52.796;6.942;2023-08-31T03:23:24;13.63;;;10.13;;
52380;SDS011;38310;52.796;6.942;2023-08-31T03:25:51;13.57;;;9.60;;
52380;SDS011;38310;52.796;6.942;2023-08-31T03:28:18;12.32;;;10.25;;
52380;SDS011;38310;52.796;6.942;2023-08-31T03:30:45;11.63;;;10.32;;
52380;SDS011;38310;52.796;6.942;2023-08-31T03:33:11;12.70;;;10.05;;
52380;SDS011;38310;52.796;6.942;2023-08-31T03:35:37;13.48;;;11.15;;
52380;SDS011;38310;52.796;6.942;2023-08-31T03:38:03;11.60;;;10.38;;
52380;SDS011;38310;52.796;6.942;2023-08-31T03:40:29;11.05;;;9.85;;
52380;SDS011;38310;52.796;6.942;2023-08-31T03:42:54;12.48;;;10.90;;
52380;SDS011;38310;52.796;6.942;2023-08-31T03:45:20;13.07;;;10.70;;
52380;SDS011;38310;52.796;6.942;2023-08-31T03:47:46;11.98;;;9.90;;
52380;SDS011;38310;52.796;6.942;2023-08-31T03:50:12;10.82;;;9.60;;
52380;SDS011;38310;52.796;6.942;2023-08-31T03:52:37;10.55;;;8.63;;
52380;SDS011;38310;52.796;6.942;2023-08-31T03:55:03;10.35;;;9.20;;
52380;SDS011;38310;52.796;6.942;2023-08-31T03:57:29;10.85;;;8.57;;
52380;SDS011;38310;52.796;6.942;2023-08-31T03:59:55;11.50;;;9.15;;
52380;SDS011;38310;52.796;6.942;2023-08-31T04:02:20;11.32;;;9.35;;
52380;SDS011;38310;52.796;6.942;2023-08-31T04:04:46;12.02;;;9.75;;
52380;SDS011;38310;52.796;6.942;2023-08-31T04:07:12;11.25;;;9.00;;
52380;SDS011;38310;52.796;6.942;2023-08-31T04:09:37;10.40;;;8.65;;
52380;SDS011;38310;52.796;6.942;2023-08-31T04:12:03;11.05;;;8.23;;
52380;SDS011;38310;52.796;6.942;2023-08-31T04:14:29;9.25;;;7.93;;
52380;SDS011;38310;52.796;6.942;2023-08-31T04:16:55;10.35;;;8.95;;
52380;SDS011;38310;52.796;6.942;2023-08-31T04:19:21;9.10;;;8.00;;
52380;SDS011;38310;52.796;6.942;2023-08-31T04:21:47;10.45;;;8.77;;
52380;SDS011;38310;52.796;6.942;2023-08-31T04:24:13;9.27;;;7.97;;
52380;SDS011;38310;52.796;6.942;2023-08-31T04:26:39;9.25;;;7.57;;
52380;SDS011;38310;52.796;6.942;2023-08-31T04:29:04;12.25;;;8.95;;
52380;SDS011;38310;52.796;6.942;2023-08-31T04:31:31;11.18;;;8.02;;
52380;SDS011;38310;52.796;6.942;2023-08-31T04:33:57;10.70;;;8.20;;
52380;SDS011;38310;52.796;6.942;2023-08-31T04:36:23;9.10;;;7.60;;
52380;SDS011;38310;52.796;6.942;2023-08-31T04:38:51;8.27;;;7.32;;
52380;SDS011;38310;52.796;6.942;2023-08-31T04:41:17;10.57;;;7.80;;
52380;SDS011;38310;52.796;6.942;2023-08-31T04:43:43;9.63;;;7.45;;
52380;SDS011;38310;52.796;6.942;2023-08-31T04:46:09;11.13;;;7.45;;
52380;SDS011;38310;52.796;6.942;2023-08-31T04:48:35;9.18;;;7.88;;
52380;SDS011;38310;52.796;6.942;2023-08-31T04:51:01;8.95;;;7.68;;
52380;SDS011;38310;52.796;6.942;2023-08-31T04:53:29;11.32;;;8.18;;
52380;SDS011;38310;52.796;6.942;2023-08-31T04:55:58;8.57;;;6.97;;
52380;SDS011;38310;52.796;6.942;2023-08-31T04:58:23;8.60;;;7.13;;
52380;SDS011;38310;52.796;6.942;2023-08-31T05:00:51;9.38;;;7.28;;
52380;SDS011;38310;52.796;6.942;2023-08-31T05:03:17;10.75;;;7.45;;
52380;SDS011;38310;52.796;6.942;2023-08-31T05:05:42;12.38;;;6.57;;
52380;SDS011;38310;52.796;6.942;2023-08-31T05:08:09;8.60;;;6.50;;
52380;SDS011;38310;52.796;6.942;2023-08-31T05:10:34;9.20;;;6.80;;
52380;SDS011;38310;52.796;6.942;2023-08-31T05:13:00;6.82;;;6.03;;
52380;SDS011;38310;52.796;6.942;2023-08-31T05:15:26;7.22;;;6.13;;
52380;SDS011;38310;52.796;6.942;2023-08-31T05:17:55;7.28;;;6.25;;
52380;SDS011;38310;52.796;6.942;2023-08-31T05:20:21;8.30;;;6.90;;
52380;SDS011;38310;52.796;6.942;2023-08-31T05:22:50;8.82;;;6.82;;
52380;SDS011;38310;52.796;6.942;2023-08-31T05:25:16;8.77;;;6.03;;
52380;SDS011;38310;52.796;6.942;2023-08-31T05:27:41;7.97;;;6.72;;
52380;SDS011;38310;52.796;6.942;2023-08-31T05:30:07;8.25;;;6.43;;
52380;SDS011;38310;52.796;6.942;2023-08-31T05:32:33;8.85;;;6.68;;
52380;SDS011;38310;52.796;6.942;2023-08-31T05:35:00;8.07;;;6.57;;
52380;SDS011;38310;52.796;6.942;2023-08-31T05:37:25;8.65;;;6.70;;
52380;SDS011;38310;52.796;6.942;2023-08-31T05:39:51;7.85;;;6.50;;
52380;SDS011;38310;52.796;6.942;2023-08-31T05:42:17;9.88;;;6.85;;
52380;SDS011;38310;52.796;6.942;2023-08-31T05:44:43;9.63;;;7.25;;
52380;SDS011;38310;52.796;6.942;2023-08-31T05:47:09;8.80;;;6.93;;
52380;SDS011;38310;52.796;6.942;2023-08-31T05:49:35;9.13;;;7.00;;
52380;SDS011;38310;52.796;6.942;2023-08-31T05:52:00;8.45;;;6.78;;
52380;SDS011;38310;52.796;6.942;2023-08-31T05:54:26;8.25;;;6.68;;
52380;SDS011;38310;52.796;6.942;2023-08-31T05:56:52;8.70;;;7.18;;
52380;SDS011;38310;52.796;6.942;2023-08-31T05:59:18;7.80;;;7.00;;
52380;SDS011;38310;52.796;6.942;2023-08-31T06:01:43;9.80;;;7.65;;
52380;SDS011;38310;52.796;6.942;2023-08-31T06:04:09;8.30;;;6.38;;
52380;SDS011;38310;52.796;6.942;2023-08-31T06:06:35;8.35;;;6.50;;
52380;SDS011;38310;52.796;6.942;2023-08-31T06:09:01;7.90;;;6.22;;
52380;SDS011;38310;52.796;6.942;2023-08-31T06:11:27;8.43;;;6.65;;
52380;SDS011;38310;52.796;6.942;2023-08-31T06:13:53;9.30;;;6.60;;
52380;SDS011;38310;52.796;6.942;2023-08-31T06:16:18;9.00;;;7.22;;
52380;SDS011;38310;52.796;6.942;2023-08-31T06:18:44;9.55;;;6.60;;
52380;SDS011;38310;52.796;6.942;2023-08-31T06:21:10;9.68;;;7.00;;
52380;SDS011;38310;52.796;6.942;2023-08-31T06:23:35;11.20;;;7.05;;
52380;SDS011;38310;52.796;6.942;2023-08-31T06:26:01;11.85;;;7.05;;
52380;SDS011;38310;52.796;6.942;2023-08-31T06:28:28;8.68;;;7.05;;
52380;SDS011;38310;52.796;6.942;2023-08-31T06:30:54;8.77;;;6.38;;
52380;SDS011;38310;52.796;6.942;2023-08-31T06:33:20;8.40;;;6.22;;
52380;SDS011;38310;52.796;6.942;2023-08-31T06:35:46;8.50;;;6.65;;
52380;SDS011;38310;52.796;6.942;2023-08-31T06:38:16;8.65;;;6.68;;
52380;SDS011;38310;52.796;6.942;2023-08-31T06:40:46;7.05;;;6.05;;
52380;SDS011;38310;52.796;6.942;2023-08-31T06:43:12;8.32;;;6.50;;
52380;SDS011;38310;52.796;6.942;2023-08-31T06:45:38;11.48;;;7.13;;
52380;SDS011;38310;52.796;6.942;2023-08-31T06:48:03;11.05;;;6.50;;
52380;SDS011;38310;52.796;6.942;2023-08-31T06:50:29;10.57;;;5.90;;
52380;SDS011;38310;52.796;6.942;2023-08-31T06:52:55;7.80;;;5.95;;
52380;SDS011;38310;52.796;6.942;2023-08-31T06:55:21;8.50;;;6.20;;
52380;SDS011;38310;52.796;6.942;2023-08-31T06:57:47;10.27;;;6.40;;
52380;SDS011;38310;52.796;6.942;2023-08-31T07:00:13;9.55;;;6.32;;
52380;SDS011;38310;52.796;6.942;2023-08-31T07:02:40;11.68;;;6.38;;
52380;SDS011;38310;52.796;6.942;2023-08-31T07:05:06;7.90;;;6.55;;
52380;SDS011;38310;52.796;6.942;2023-08-31T07:07:33;9.50;;;6.25;;
52380;SDS011;38310;52.796;6.942;2023-08-31T07:09:58;8.70;;;6.20;;
52380;SDS011;38310;52.796;6.942;2023-08-31T07:12:24;8.95;;;6.30;;
52380;SDS011;38310;52.796;6.942;2023-08-31T07:14:50;9.10;;;5.72;;
52380;SDS011;38310;52.796;6.942;2023-08-31T07:17:19;9.77;;;5.35;;
52380;SDS011;38310;52.796;6.942;2023-08-31T07:19:45;8.13;;;5.63;;
52380;SDS011;38310;52.796;6.942;2023-08-31T07:22:10;6.82;;;5.68;;
52380;SDS011;38310;52.796;6.942;2023-08-31T07:24:37;8.98;;;5.65;;
52380;SDS011;38310;52.796;6.942;2023-08-31T07:27:03;10.95;;;5.30;;
52380;SDS011;38310;52.796;6.942;2023-08-31T07:29:29;7.57;;;5.32;;
52380;SDS011;38310;52.796;6.942;2023-08-31T07:31:56;8.48;;;4.82;;
52380;SDS011;38310;52.796;6.942;2023-08-31T07:34:22;6.53;;;4.70;;
52380;SDS011;38310;52.796;6.942;2023-08-31T07:36:48;6.82;;;4.22;;
52380;SDS011;38310;52.796;6.942;2023-08-31T07:39:14;8.15;;;4.47;;
52380;SDS011;38310;52.796;6.942;2023-08-31T07:41:42;7.78;;;4.82;;
52380;SDS011;38310;52.796;6.942;2023-08-31T07:44:08;9.07;;;5.00;;
52380;SDS011;38310;52.796;6.942;2023-08-31T07:46:34;8.65;;;4.60;;
52380;SDS011;38310;52.796;6.942;2023-08-31T07:49:00;5.03;;;4.18;;
52380;SDS011;38310;52.796;6.942;2023-08-31T07:51:26;6.03;;;3.72;;
52380;SDS011;38310;52.796;6.942;2023-08-31T07:53:52;5.85;;;3.72;;
52380;SDS011;38310;52.796;6.942;2023-08-31T07:56:17;5.88;;;3.75;;
52380;SDS011;38310;52.796;6.942;2023-08-31T07:58:44;6.47;;;4.10;;
52380;SDS011;38310;52.796;6.942;2023-08-31T08:01:09;7.07;;;3.67;;
52380;SDS011;38310;52.796;6.942;2023-08-31T08:03:35;6.13;;;3.72;;
52380;SDS011;38310;52.796;6.942;2023-08-31T08:06:01;5.45;;;3.40;;
52380;SDS011;38310;52.796;6.942;2023-08-31T08:08:26;6.07;;;3.40;;
52380;SDS011;38310;52.796;6.942;2023-08-31T08:10:52;5.38;;;3.25;;
52380;SDS011;38310;52.796;6.942;2023-08-31T08:13:19;9.18;;;3.80;;
52380;SDS011;38310;52.796;6.942;2023-08-31T08:15:47;7.10;;;3.35;;
52380;SDS011;38310;52.796;6.942;2023-08-31T08:18:13;6.50;;;3.20;;
52380;SDS011;38310;52.796;6.942;2023-08-31T08:20:38;6.00;;;3.10;;
52380;SDS011;38310;52.796;6.942;2023-08-31T08:23:07;9.57;;;3.67;;
52380;SDS011;38310;52.796;6.942;2023-08-31T08:25:33;5.78;;;2.85;;
52380;SDS011;38310;52.796;6.942;2023-08-31T08:27:59;6.50;;;2.65;;
52380;SDS011;38310;52.796;6.942;2023-08-31T08:30:25;5.10;;;2.80;;
52380;SDS011;38310;52.796;6.942;2023-08-31T08:32:51;5.97;;;2.10;;
52380;SDS011;38310;52.796;6.942;2023-08-31T08:35:17;6.57;;;2.03;;
52380;SDS011;38310;52.796;6.942;2023-08-31T08:37:42;5.43;;;2.30;;
52380;SDS011;38310;52.796;6.942;2023-08-31T08:40:09;3.63;;;2.50;;
52380;SDS011;38310;52.796;6.942;2023-08-31T08:42:38;5.63;;;2.20;;
52380;SDS011;38310;52.796;6.942;2023-08-31T08:45:07;7.00;;;2.67;;
52380;SDS011;38310;52.796;6.942;2023-08-31T08:47:40;5.32;;;2.33;;
52380;SDS011;38310;52.796;6.942;2023-08-31T08:50:07;4.05;;;1.83;;
52380;SDS011;38310;52.796;6.942;2023-08-31T08:52:35;4.38;;;1.83;;
52380;SDS011;38310;52.796;6.942;2023-08-31T08:55:01;4.05;;;2.20;;
52380;SDS011;38310;52.796;6.942;2023-08-31T08:57:28;5.53;;;1.98;;
52380;SDS011;38310;52.796;6.942;2023-08-31T08:59:56;3.20;;;1.75;;
52380;SDS011;38310;52.796;6.942;2023-08-31T09:02:23;4.13;;;1.55;;
52380;SDS011;38310;52.796;6.942;2023-08-31T09:04:49;3.20;;;1.45;;
52380;SDS011;38310;52.796;6.942;2023-08-31T09:07:19;4.47;;;1.48;;
52380;SDS011;38310;52.796;6.942;2023-08-31T09:09:53;3.60;;;1.02;;
52380;SDS011;38310;52.796;6.942;2023-08-31T09:12:22;3.70;;;1.30;;
52380;SDS011;38310;52.796;6.942;2023-08-31T09:14:59;3.72;;;1.10;;
52380;SDS011;38310;52.796;6.942;2023-08-31T09:17:26;5.82;;;1.30;;
52380;SDS011;38310;52.796;6.942;2023-08-31T09:20:02;5.45;;;1.13;;
52380;SDS011;38310;52.796;6.942;2023-08-31T09:22:31;4.63;;;1.30;;
52380;SDS011;38310;52.796;6.942;2023-08-31T09:24:57;2.22;;;1.10;;
52380;SDS011;38310;52.796;6.942;2023-08-31T09:27:23;4.15;;;1.05;;
52380;SDS011;38310;52.796;6.942;2023-08-31T09:29:50;5.00;;;0.90;;
52380;SDS011;38310;52.796;6.942;2023-08-31T09:32:16;3.45;;;1.25;;
52380;SDS011;38310;52.796;6.942;2023-08-31T09:34:42;4.70;;;1.02;;
52380;SDS011;38310;52.796;6.942;2023-08-31T09:37:08;2.63;;;0.50;;
52380;SDS011;38310;52.796;6.942;2023-08-31T09:39:38;1.48;;;0.57;;
52380;SDS011;38310;52.796;6.942;2023-08-31T09:42:04;1.75;;;0.70;;
52380;SDS011;38310;52.796;6.942;2023-08-31T09:44:31;1.35;;;0.50;;
52380;SDS011;38310;52.796;6.942;2023-08-31T09:46:57;1.98;;;0.80;;
52380;SDS011;38310;52.796;6.942;2023-08-31T09:49:24;0.88;;;0.60;;
52380;SDS011;38310;52.796;6.942;2023-08-31T09:51:50;2.42;;;0.73;;
52380;SDS011;38310;52.796;6.942;2023-08-31T09:54:17;2.22;;;0.93;;
52380;SDS011;38310;52.796;6.942;2023-08-31T09:56:46;3.65;;;1.20;;
52380;SDS011;38310;52.796;6.942;2023-08-31T09:59:13;2.85;;;0.65;;
52380;SDS011;38310;52.796;6.942;2023-08-31T10:01:41;1.35;;;0.55;;
52380;SDS011;38310;52.796;6.942;2023-08-31T10:04:09;1.70;;;0.80;;
52380;SDS011;38310;52.796;6.942;2023-08-31T10:06:36;4.18;;;1.00;;
52380;SDS011;38310;52.796;6.942;2023-08-31T10:09:04;3.10;;;0.80;;
52380;SDS011;38310;52.796;6.942;2023-08-31T10:11:31;2.00;;;0.88;;
52380;SDS011;38310;52.796;6.942;2023-08-31T10:13:57;2.38;;;1.00;;
52380;SDS011;38310;52.796;6.942;2023-08-31T10:16:27;3.90;;;0.90;;
52380;SDS011;38310;52.796;6.942;2023-08-31T10:18:53;1.73;;;0.77;;
52380;SDS011;38310;52.796;6.942;2023-08-31T10:21:20;3.13;;;0.77;;
52380;SDS011;38310;52.796;6.942;2023-08-31T10:23:50;4.07;;;1.10;;
52380;SDS011;38310;52.796;6.942;2023-08-31T10:26:23;2.28;;;0.90;;
52380;SDS011;38310;52.796;6.942;2023-08-31T10:28:56;3.22;;;1.10;;
52380;SDS011;38310;52.796;6.942;2023-08-31T10:31:23;2.45;;;1.20;;
52380;SDS011;38310;52.796;6.942;2023-08-31T10:34:00;4.13;;;1.88;;
52380;SDS011;38310;52.796;6.942;2023-08-31T10:36:41;3.78;;;0.98;;
52380;SDS011;38310;52.796;6.942;2023-08-31T10:41:54;3.08;;;0.80;;
52380;SDS011;38310;52.796;6.942;2023-08-31T10:44:24;2.72;;;1.10;;
52380;SDS011;38310;52.796;6.942;2023-08-31T10:46:52;2.08;;;0.95;;
52380;SDS011;38310;52.796;6.942;2023-08-31T10:49:18;1.90;;;0.80;;
52380;SDS011;38310;52.796;6.942;2023-08-31T10:54:25;2.00;;;0.70;;
52380;SDS011;38310;52.796;6.942;2023-08-31T10:59:21;1.88;;;0.88;;
52380;SDS011;38310;52.796;6.942;2023-08-31T11:02:00;3.70;;;0.70;;
52380;SDS011;38310;52.796;6.942;2023-08-31T11:04:30;2.75;;;0.60;;
52380;SDS011;38310;52.796;6.942;2023-08-31T11:07:12;2.88;;;0.70;;
52380;SDS011;38310;52.796;6.942;2023-08-31T11:09:39;2.35;;;0.70;;
52380;SDS011;38310;52.796;6.942;2023-08-31T11:12:06;2.60;;;0.55;;
52380;SDS011;38310;52.796;6.942;2023-08-31T11:14:32;2.28;;;0.77;;
52380;SDS011;38310;52.796;6.942;2023-08-31T11:16:58;2.63;;;0.90;;
52380;SDS011;38310;52.796;6.942;2023-08-31T11:19:25;4.57;;;1.00;;
52380;SDS011;38310;52.796;6.942;2023-08-31T11:21:52;3.58;;;1.00;;
52380;SDS011;38310;52.796;6.942;2023-08-31T11:24:19;2.67;;;0.80;;
52380;SDS011;38310;52.796;6.942;2023-08-31T11:26:50;3.22;;;1.52;;
52380;SDS011;38310;52.796;6.942;2023-08-31T11:29:16;2.72;;;1.13;;
52380;SDS011;38310;52.796;6.942;2023-08-31T11:31:42;3.33;;;1.00;;
52380;SDS011;38310;52.796;6.942;2023-08-31T11:34:14;2.35;;;0.90;;
52380;SDS011;38310;52.796;6.942;2023-08-31T11:36:41;3.60;;;1.00;;
52380;SDS011;38310;52.796;6.942;2023-08-31T11:39:11;4.55;;;1.45;;
52380;SDS011;38310;52.796;6.942;2023-08-31T11:41:40;3.28;;;1.02;;
52380;SDS011;38310;52.796;6.942;2023-08-31T11:44:13;3.35;;;1.10;;
52380;SDS011;38310;52.796;6.942;2023-08-31T11:46:41;3.65;;;1.30;;
52380;SDS011;38310;52.796;6.942;2023-08-31T11:49:09;3.58;;;1.23;;
52380;SDS011;38310;52.796;6.942;2023-08-31T11:51:35;3.90;;;1.35;;
52380;SDS011;38310;52.796;6.942;2023-08-31T11:54:02;4.15;;;0.90;;
52380;SDS011;38310;52.796;6.942;2023-08-31T11:56:42;3.10;;;0.90;;
52380;SDS011;38310;52.796;6.942;2023-08-31T11:59:09;3.15;;;1.20;;
52380;SDS011;38310;52.796;6.942;2023-08-31T12:01:48;2.33;;;1.00;;
52380;SDS011;38310;52.796;6.942;2023-08-31T12:04:21;3.83;;;0.95;;
52380;SDS011;38310;52.796;6.942;2023-08-31T12:06:49;5.38;;;1.23;;
52380;SDS011;38310;52.796;6.942;2023-08-31T12:09:16;2.00;;;0.90;;
52380;SDS011;38310;52.796;6.942;2023-08-31T12:11:49;2.90;;;1.00;;
52380;SDS011;38310;52.796;6.942;2023-08-31T12:14:18;2.15;;;0.90;;
52380;SDS011;38310;52.796;6.942;2023-08-31T12:16:48;3.05;;;0.63;;
52380;SDS011;38310;52.796;6.942;2023-08-31T12:19:15;2.30;;;0.85;;
52380;SDS011;38310;52.796;6.942;2023-08-31T12:21:42;1.33;;;0.90;;
52380;SDS011;38310;52.796;6.942;2023-08-31T12:24:12;3.55;;;0.70;;
52380;SDS011;38310;52.796;6.942;2023-08-31T12:26:38;2.15;;;0.70;;
52380;SDS011;38310;52.796;6.942;2023-08-31T12:29:04;4.82;;;0.93;;
52380;SDS011;38310;52.796;6.942;2023-08-31T12:31:30;1.38;;;0.60;;
52380;SDS011;38310;52.796;6.942;2023-08-31T12:33:57;1.70;;;0.60;;
52380;SDS011;38310;52.796;6.942;2023-08-31T12:36:23;1.70;;;0.80;;
52380;SDS011;38310;52.796;6.942;2023-08-31T12:38:48;1.42;;;0.60;;
52380;SDS011;38310;52.796;6.942;2023-08-31T12:41:14;3.42;;;0.80;;
52380;SDS011;38310;52.796;6.942;2023-08-31T12:43:41;1.65;;;0.75;;
52380;SDS011;38310;52.796;6.942;2023-08-31T12:46:07;1.35;;;0.60;;
52380;SDS011;38310;52.796;6.942;2023-08-31T12:48:34;1.50;;;0.50;;
52380;SDS011;38310;52.796;6.942;2023-08-31T12:51:00;2.33;;;0.77;;
52380;SDS011;38310;52.796;6.942;2023-08-31T12:53:26;3.03;;;0.80;;
52380;SDS011;38310;52.796;6.942;2023-08-31T12:55:52;2.50;;;0.75;;
52380;SDS011;38310;52.796;6.942;2023-08-31T12:58:19;0.88;;;0.60;;
52380;SDS011;38310;52.796;6.942;2023-08-31T13:00:46;2.63;;;0.70;;
52380;SDS011;38310;52.796;6.942;2023-08-31T13:03:14;1.45;;;0.60;;
52380;SDS011;38310;52.796;6.942;2023-08-31T13:05:40;1.73;;;0.65;;
52380;SDS011;38310;52.796;6.942;2023-08-31T13:08:09;2.85;;;0.60;;
52380;SDS011;38310;52.796;6.942;2023-08-31T13:10:35;3.17;;;0.60;;
52380;SDS011;38310;52.796;6.942;2023-08-31T13:13:01;3.50;;;0.93;;
52380;SDS011;38310;52.796;6.942;2023-08-31T13:15:27;1.88;;;0.70;;
52380;SDS011;38310;52.796;6.942;2023-08-31T13:17:52;2.25;;;0.60;;
52380;SDS011;38310;52.796;6.942;2023-08-31T13:20:18;4.35;;;1.45;;
52380;SDS011;38310;52.796;6.942;2023-08-31T13:22:44;1.17;;;0.70;;
52380;SDS011;38310;52.796;6.942;2023-08-31T13:25:10;3.25;;;0.70;;
52380;SDS011;38310;52.796;6.942;2023-08-31T13:27:36;3.53;;;0.90;;
52380;SDS011;38310;52.796;6.942;2023-08-31T13:30:03;3.85;;;0.70;;
52380;SDS011;38310;52.796;6.942;2023-08-31T13:32:32;2.13;;;0.60;;
52380;SDS011;38310;52.796;6.942;2023-08-31T13:34:59;2.85;;;0.80;;
52380;SDS011;38310;52.796;6.942;2023-08-31T13:37:25;2.72;;;0.68;;
52380;SDS011;38310;52.796;6.942;2023-08-31T13:39:51;2.70;;;0.75;;
52380;SDS011;38310;52.796;6.942;2023-08-31T13:42:22;2.15;;;0.80;;
52380;SDS011;38310;52.796;6.942;2023-08-31T13:44:48;3.75;;;0.77;;
52380;SDS011;38310;52.796;6.942;2023-08-31T13:47:14;2.65;;;1.00;;
52380;SDS011;38310;52.796;6.942;2023-08-31T13:49:39;3.95;;;0.80;;
52380;SDS011;38310;52.796;6.942;2023-08-31T13:52:05;2.75;;;0.93;;
52380;SDS011;38310;52.796;6.942;2023-08-31T13:54:33;3.05;;;0.75;;
52380;SDS011;38310;52.796;6.942;2023-08-31T13:56:59;4.65;;;0.90;;
52380;SDS011;38310;52.796;6.942;2023-08-31T13:59:24;3.72;;;0.80;;
52380;SDS011;38310;52.796;6.942;2023-08-31T14:01:53;2.00;;;0.80;;
52380;SDS011;38310;52.796;6.942;2023-08-31T14:04:19;4.22;;;0.80;;
52380;SDS011;38310;52.796;6.942;2023-08-31T14:06:45;2.20;;;0.73;;
52380;SDS011;38310;52.796;6.942;2023-08-31T14:09:10;1.85;;;0.70;;
52380;SDS011;38310;52.796;6.942;2023-08-31T14:11:36;3.08;;;0.80;;
52380;SDS011;38310;52.796;6.942;2023-08-31T14:14:02;3.03;;;0.90;;
52380;SDS011;38310;52.796;6.942;2023-08-31T14:16:36;4.43;;;1.15;;
52380;SDS011;38310;52.796;6.942;2023-08-31T14:19:03;1.45;;;0.60;;
52380;SDS011;38310;52.796;6.942;2023-08-31T14:21:29;2.53;;;0.73;;
52380;SDS011;38310;52.796;6.942;2023-08-31T14:23:55;3.58;;;0.77;;
52380;SDS011;38310;52.796;6.942;2023-08-31T14:26:24;2.30;;;0.50;;
52380;SDS011;38310;52.796;6.942;2023-08-31T14:28:50;2.20;;;0.60;;
52380;SDS011;38310;52.796;6.942;2023-08-31T14:31:17;3.17;;;0.68;;
52380;SDS011;38310;52.796;6.942;2023-08-31T14:33:43;1.67;;;0.60;;
52380;SDS011;38310;52.796;6.942;2023-08-31T14:36:09;2.92;;;0.90;;
52380;SDS011;38310;52.796;6.942;2023-08-31T14:38:35;2.85;;;1.05;;
52380;SDS011;38310;52.796;6.942;2023-08-31T14:41:00;3.70;;;0.80;;
52380;SDS011;38310;52.796;6.942;2023-08-31T14:43:26;2.40;;;0.80;;
52380;SDS011;38310;52.796;6.942;2023-08-31T14:45:52;2.55;;;0.70;;
52380;SDS011;38310;52.796;6.942;2023-08-31T14:48:18;4.30;;;0.90;;
52380;SDS011;38310;52.796;6.942;2023-08-31T14:50:43;3.45;;;0.77;;
52380;SDS011;38310;52.796;6.942;2023-08-31T14:53:09;2.75;;;0.80;;
52380;SDS011;38310;52.796;6.942;2023-08-31T14:55:36;2.13;;;0.70;;
52380;SDS011;38310;52.796;6.942;2023-08-31T14:58:03;4.72;;;1.00;;
52380;SDS011;38310;52.796;6.942;2023-08-31T15:00:31;3.20;;;0.88;;